sensor_id;sensor_type;location;lat;lon;timestamp;P1;durP1;ratioP1;P2;durP2;ratioP2
34805;SDS011;65084;42.196;25.326;2023-07-31T00:00:20;2.72;;;1.27;;
34805;SDS011;65084;42.196;25.326;2023-07-31T00:02:47;4.50;;;1.50;;
34805;SDS011;65084;42.196;25.326;2023-07-31T00:05:15;1.92;;;1.20;;
34805;SDS011;65084;42.196;25.326;2023-07-31T00:07:42;1.30;;;1.20;;
34805;SDS011;65084;42.196;25.326;2023-07-31T00:10:09;1.42;;;1.33;;
34805;SDS011;65084;42.196;25.326;2023-07-31T00:12:37;4.78;;;1.27;;
34805;SDS011;65084;42.196;25.326;2023-07-31T00:15:05;8.93;;;1.50;;
34805;SDS011;65084;42.196;25.326;2023-07-31T00:17:34;6.82;;;1.40;;
34805;SDS011;65084;42.196;25.326;2023-07-31T00:20:01;1.30;;;1.20;;
34805;SDS011;65084;42.196;25.326;2023-07-31T00:22:29;1.20;;;1.10;;
34805;SDS011;65084;42.196;25.326;2023-07-31T00:24:56;1.25;;;1.15;;
34805;SDS011;65084;42.196;25.326;2023-07-31T00:27:24;2.47;;;1.25;;
34805;SDS011;65084;42.196;25.326;2023-07-31T00:29:52;1.38;;;1.27;;
34805;SDS011;65084;42.196;25.326;2023-07-31T00:32:19;1.40;;;1.30;;
34805;SDS011;65084;42.196;25.326;2023-07-31T00:34:48;1.42;;;1.33;;
34805;SDS011;65084;42.196;25.326;2023-07-31T00:37:15;2.55;;;1.50;;
34805;SDS011;65084;42.196;25.326;2023-07-31T00:39:42;1.50;;;1.40;;
34805;SDS011;65084;42.196;25.326;2023-07-31T00:42:09;2.38;;;1.40;;
34805;SDS011;65084;42.196;25.326;2023-07-31T00:44:37;1.58;;;1.35;;
34805;SDS011;65084;42.196;25.326;2023-07-31T00:47:04;1.45;;;1.23;;
34805;SDS011;65084;42.196;25.326;2023-07-31T00:49:32;2.00;;;1.50;;
34805;SDS011;65084;42.196;25.326;2023-07-31T00:52:01;1.60;;;1.50;;
34805;SDS011;65084;42.196;25.326;2023-07-31T00:54:28;1.27;;;1.23;;
34805;SDS011;65084;42.196;25.326;2023-07-31T00:56:55;1.52;;;1.45;;
34805;SDS011;65084;42.196;25.326;2023-07-31T00:59:23;1.55;;;1.30;;
34805;SDS011;65084;42.196;25.326;2023-07-31T01:01:50;1.90;;;1.40;;
34805;SDS011;65084;42.196;25.326;2023-07-31T01:04:18;1.38;;;1.27;;
34805;SDS011;65084;42.196;25.326;2023-07-31T01:06:47;2.63;;;1.33;;
34805;SDS011;65084;42.196;25.326;2023-07-31T01:09:18;1.38;;;1.10;;
34805;SDS011;65084;42.196;25.326;2023-07-31T01:11:48;1.50;;;1.40;;
34805;SDS011;65084;42.196;25.326;2023-07-31T01:14:18;4.30;;;1.50;;
34805;SDS011;65084;42.196;25.326;2023-07-31T01:16:45;4.20;;;1.33;;
34805;SDS011;65084;42.196;25.326;2023-07-31T01:19:12;3.33;;;1.30;;
34805;SDS011;65084;42.196;25.326;2023-07-31T01:21:53;1.33;;;1.23;;
34805;SDS011;65084;42.196;25.326;2023-07-31T01:24:28;1.30;;;1.20;;
34805;SDS011;65084;42.196;25.326;2023-07-31T01:27:01;1.50;;;1.15;;
34805;SDS011;65084;42.196;25.326;2023-07-31T01:29:32;1.45;;;1.30;;
34805;SDS011;65084;42.196;25.326;2023-07-31T01:32:01;1.40;;;1.20;;
34805;SDS011;65084;42.196;25.326;2023-07-31T01:34:29;3.03;;;1.38;;
34805;SDS011;65084;42.196;25.326;2023-07-31T01:36:57;4.38;;;1.45;;
34805;SDS011;65084;42.196;25.326;2023-07-31T01:39:24;1.85;;;1.30;;
34805;SDS011;65084;42.196;25.326;2023-07-31T01:41:51;2.50;;;1.13;;
34805;SDS011;65084;42.196;25.326;2023-07-31T01:44:20;3.22;;;1.15;;
34805;SDS011;65084;42.196;25.326;2023-07-31T01:46:47;2.65;;;1.33;;
34805;SDS011;65084;42.196;25.326;2023-07-31T01:49:14;4.28;;;1.77;;
34805;SDS011;65084;42.196;25.326;2023-07-31T01:51:42;5.85;;;2.60;;
34805;SDS011;65084;42.196;25.326;2023-07-31T01:54:09;5.03;;;2.20;;
34805;SDS011;65084;42.196;25.326;2023-07-31T01:56:36;1.63;;;1.50;;
34805;SDS011;65084;42.196;25.326;2023-07-31T01:59:03;4.03;;;1.70;;
34805;SDS011;65084;42.196;25.326;2023-07-31T02:01:32;3.85;;;1.60;;
34805;SDS011;65084;42.196;25.326;2023-07-31T02:03:59;1.90;;;1.40;;
34805;SDS011;65084;42.196;25.326;2023-07-31T02:06:27;2.20;;;1.92;;
34805;SDS011;65084;42.196;25.326;2023-07-31T02:08:55;4.00;;;1.50;;
34805;SDS011;65084;42.196;25.326;2023-07-31T02:11:22;8.32;;;1.65;;
34805;SDS011;65084;42.196;25.326;2023-07-31T02:13:49;2.25;;;1.27;;
34805;SDS011;65084;42.196;25.326;2023-07-31T02:16:16;2.63;;;1.52;;
34805;SDS011;65084;42.196;25.326;2023-07-31T02:18:45;2.03;;;1.10;;
34805;SDS011;65084;42.196;25.326;2023-07-31T02:21:12;1.83;;;1.60;;
34805;SDS011;65084;42.196;25.326;2023-07-31T02:23:40;7.72;;;1.38;;
34805;SDS011;65084;42.196;25.326;2023-07-31T02:26:07;2.50;;;1.40;;
34805;SDS011;65084;42.196;25.326;2023-07-31T02:28:34;1.60;;;1.50;;
34805;SDS011;65084;42.196;25.326;2023-07-31T02:31:02;5.63;;;1.42;;
34805;SDS011;65084;42.196;25.326;2023-07-31T02:33:29;3.65;;;1.70;;
34805;SDS011;65084;42.196;25.326;2023-07-31T02:35:58;4.00;;;1.73;;
34805;SDS011;65084;42.196;25.326;2023-07-31T02:38:25;4.65;;;1.80;;
34805;SDS011;65084;42.196;25.326;2023-07-31T02:40:52;4.47;;;1.83;;
34805;SDS011;65084;42.196;25.326;2023-07-31T02:43:20;6.10;;;1.63;;
34805;SDS011;65084;42.196;25.326;2023-07-31T02:45:50;5.25;;;1.92;;
34805;SDS011;65084;42.196;25.326;2023-07-31T02:48:18;9.05;;;2.03;;
34805;SDS011;65084;42.196;25.326;2023-07-31T02:50:45;9.82;;;1.95;;
34805;SDS011;65084;42.196;25.326;2023-07-31T02:53:13;13.07;;;1.98;;
34805;SDS011;65084;42.196;25.326;2023-07-31T02:55:41;7.18;;;1.95;;
34805;SDS011;65084;42.196;25.326;2023-07-31T02:58:08;5.05;;;1.77;;
34805;SDS011;65084;42.196;25.326;2023-07-31T03:00:35;3.92;;;1.80;;
34805;SDS011;65084;42.196;25.326;2023-07-31T03:03:03;5.43;;;1.77;;
34805;SDS011;65084;42.196;25.326;2023-07-31T03:05:30;3.72;;;2.03;;
34805;SDS011;65084;42.196;25.326;2023-07-31T03:07:57;1.92;;;1.83;;
34805;SDS011;65084;42.196;25.326;2023-07-31T03:10:26;3.30;;;2.00;;
34805;SDS011;65084;42.196;25.326;2023-07-31T03:12:53;3.13;;;1.88;;
34805;SDS011;65084;42.196;25.326;2023-07-31T03:15:20;3.88;;;1.73;;
34805;SDS011;65084;42.196;25.326;2023-07-31T03:17:47;3.83;;;2.08;;
34805;SDS011;65084;42.196;25.326;2023-07-31T03:20:15;12.73;;;2.45;;
34805;SDS011;65084;42.196;25.326;2023-07-31T03:22:42;2.40;;;2.05;;
34805;SDS011;65084;42.196;25.326;2023-07-31T03:25:09;4.80;;;2.65;;
34805;SDS011;65084;42.196;25.326;2023-07-31T03:27:39;4.40;;;2.60;;
34805;SDS011;65084;42.196;25.326;2023-07-31T03:30:06;4.78;;;3.72;;
34805;SDS011;65084;42.196;25.326;2023-07-31T03:32:34;8.32;;;3.40;;
34805;SDS011;65084;42.196;25.326;2023-07-31T03:35:01;5.57;;;3.47;;
34805;SDS011;65084;42.196;25.326;2023-07-31T03:37:30;4.82;;;3.80;;
34805;SDS011;65084;42.196;25.326;2023-07-31T03:39:58;16.70;;;9.10;;
34805;SDS011;65084;42.196;25.326;2023-07-31T03:42:25;10.73;;;6.47;;
34805;SDS011;65084;42.196;25.326;2023-07-31T03:44:53;4.95;;;3.28;;
34805;SDS011;65084;42.196;25.326;2023-07-31T03:47:21;3.22;;;2.42;;
34805;SDS011;65084;42.196;25.326;2023-07-31T03:49:48;4.90;;;2.97;;
34805;SDS011;65084;42.196;25.326;2023-07-31T03:52:15;5.35;;;2.08;;
34805;SDS011;65084;42.196;25.326;2023-07-31T03:54:42;8.88;;;2.33;;
34805;SDS011;65084;42.196;25.326;2023-07-31T03:57:11;95.90;;;5.70;;
34805;SDS011;65084;42.196;25.326;2023-07-31T03:59:38;60.50;;;3.63;;
34805;SDS011;65084;42.196;25.326;2023-07-31T04:02:06;17.40;;;2.85;;
34805;SDS011;65084;42.196;25.326;2023-07-31T04:04:34;13.45;;;2.58;;
34805;SDS011;65084;42.196;25.326;2023-07-31T04:07:01;8.90;;;2.35;;
34805;SDS011;65084;42.196;25.326;2023-07-31T04:09:28;20.20;;;3.05;;
34805;SDS011;65084;42.196;25.326;2023-07-31T04:11:56;21.88;;;2.75;;
34805;SDS011;65084;42.196;25.326;2023-07-31T04:14:23;19.45;;;3.75;;
34805;SDS011;65084;42.196;25.326;2023-07-31T04:16:50;12.35;;;2.65;;
34805;SDS011;65084;42.196;25.326;2023-07-31T04:19:19;9.65;;;3.28;;
34805;SDS011;65084;42.196;25.326;2023-07-31T04:21:46;3.85;;;2.80;;
34805;SDS011;65084;42.196;25.326;2023-07-31T04:24:13;9.65;;;2.50;;
34805;SDS011;65084;42.196;25.326;2023-07-31T04:26:41;7.53;;;3.33;;
34805;SDS011;65084;42.196;25.326;2023-07-31T04:29:08;4.68;;;2.10;;
34805;SDS011;65084;42.196;25.326;2023-07-31T04:31:35;7.28;;;2.10;;
34805;SDS011;65084;42.196;25.326;2023-07-31T04:34:03;42.33;;;4.45;;
34805;SDS011;65084;42.196;25.326;2023-07-31T04:36:32;17.55;;;2.20;;
34805;SDS011;65084;42.196;25.326;2023-07-31T04:39:00;15.00;;;2.30;;
34805;SDS011;65084;42.196;25.326;2023-07-31T04:41:27;5.50;;;2.50;;
34805;SDS011;65084;42.196;25.326;2023-07-31T04:43:54;2.92;;;1.92;;
34805;SDS011;65084;42.196;25.326;2023-07-31T04:46:22;6.30;;;2.10;;
34805;SDS011;65084;42.196;25.326;2023-07-31T04:48:49;8.18;;;2.38;;
34805;SDS011;65084;42.196;25.326;2023-07-31T04:51:16;15.02;;;2.55;;
34805;SDS011;65084;42.196;25.326;2023-07-31T04:53:45;12.77;;;2.35;;
34805;SDS011;65084;42.196;25.326;2023-07-31T04:56:12;11.10;;;3.00;;
34805;SDS011;65084;42.196;25.326;2023-07-31T04:58:40;14.65;;;2.90;;
34805;SDS011;65084;42.196;25.326;2023-07-31T05:01:07;15.57;;;2.75;;
34805;SDS011;65084;42.196;25.326;2023-07-31T05:03:35;15.13;;;2.92;;
34805;SDS011;65084;42.196;25.326;2023-07-31T05:06:02;11.60;;;2.38;;
34805;SDS011;65084;42.196;25.326;2023-07-31T05:08:29;18.70;;;2.67;;
34805;SDS011;65084;42.196;25.326;2023-07-31T05:10:58;13.40;;;2.50;;
34805;SDS011;65084;42.196;25.326;2023-07-31T05:13:25;16.42;;;4.38;;
34805;SDS011;65084;42.196;25.326;2023-07-31T05:15:53;15.43;;;2.58;;
34805;SDS011;65084;42.196;25.326;2023-07-31T05:18:20;5.25;;;2.80;;
34805;SDS011;65084;42.196;25.326;2023-07-31T05:20:47;3.60;;;2.92;;
34805;SDS011;65084;42.196;25.326;2023-07-31T05:23:14;11.27;;;3.63;;
34805;SDS011;65084;42.196;25.326;2023-07-31T05:25:42;8.60;;;3.40;;
34805;SDS011;65084;42.196;25.326;2023-07-31T05:28:12;12.65;;;7.43;;
34805;SDS011;65084;42.196;25.326;2023-07-31T05:30:39;10.85;;;6.88;;
34805;SDS011;65084;42.196;25.326;2023-07-31T05:33:06;9.35;;;4.97;;
34805;SDS011;65084;42.196;25.326;2023-07-31T05:35:34;9.05;;;3.38;;
34805;SDS011;65084;42.196;25.326;2023-07-31T05:38:01;11.10;;;3.53;;
34805;SDS011;65084;42.196;25.326;2023-07-31T05:40:28;13.35;;;3.70;;
34805;SDS011;65084;42.196;25.326;2023-07-31T05:42:55;14.43;;;3.88;;
34805;SDS011;65084;42.196;25.326;2023-07-31T05:45:25;6.70;;;3.25;;
34805;SDS011;65084;42.196;25.326;2023-07-31T05:47:52;8.32;;;3.30;;
34805;SDS011;65084;42.196;25.326;2023-07-31T05:50:19;7.60;;;3.72;;
34805;SDS011;65084;42.196;25.326;2023-07-31T05:52:47;7.25;;;3.55;;
34805;SDS011;65084;42.196;25.326;2023-07-31T05:55:14;8.02;;;3.38;;
34805;SDS011;65084;42.196;25.326;2023-07-31T05:57:41;8.60;;;3.55;;
34805;SDS011;65084;42.196;25.326;2023-07-31T06:00:11;7.35;;;3.15;;
34805;SDS011;65084;42.196;25.326;2023-07-31T06:02:40;9.65;;;3.70;;
34805;SDS011;65084;42.196;25.326;2023-07-31T06:05:08;5.30;;;3.50;;
34805;SDS011;65084;42.196;25.326;2023-07-31T06:07:35;4.97;;;3.50;;
34805;SDS011;65084;42.196;25.326;2023-07-31T06:10:02;10.55;;;3.75;;
34805;SDS011;65084;42.196;25.326;2023-07-31T06:12:30;8.80;;;4.43;;
34805;SDS011;65084;42.196;25.326;2023-07-31T06:14:58;4.70;;;3.65;;
34805;SDS011;65084;42.196;25.326;2023-07-31T06:17:25;9.57;;;4.45;;
34805;SDS011;65084;42.196;25.326;2023-07-31T06:19:54;6.50;;;4.18;;
34805;SDS011;65084;42.196;25.326;2023-07-31T06:22:21;9.00;;;4.85;;
34805;SDS011;65084;42.196;25.326;2023-07-31T06:24:49;5.80;;;4.43;;
34805;SDS011;65084;42.196;25.326;2023-07-31T06:27:16;4.57;;;4.20;;
34805;SDS011;65084;42.196;25.326;2023-07-31T06:29:43;7.30;;;4.60;;
34805;SDS011;65084;42.196;25.326;2023-07-31T06:32:10;5.43;;;4.57;;
34805;SDS011;65084;42.196;25.326;2023-07-31T06:34:38;12.38;;;4.75;;
34805;SDS011;65084;42.196;25.326;2023-07-31T06:37:06;10.40;;;6.70;;
34805;SDS011;65084;42.196;25.326;2023-07-31T06:39:34;12.68;;;6.72;;
34805;SDS011;65084;42.196;25.326;2023-07-31T06:42:02;10.73;;;4.80;;
34805;SDS011;65084;42.196;25.326;2023-07-31T06:44:30;5.13;;;4.63;;
34805;SDS011;65084;42.196;25.326;2023-07-31T06:46:57;8.20;;;4.20;;
34805;SDS011;65084;42.196;25.326;2023-07-31T06:49:24;4.63;;;4.25;;
34805;SDS011;65084;42.196;25.326;2023-07-31T06:51:52;8.85;;;4.85;;
34805;SDS011;65084;42.196;25.326;2023-07-31T06:54:20;7.45;;;4.30;;
34805;SDS011;65084;42.196;25.326;2023-07-31T06:56:48;7.20;;;4.90;;
34805;SDS011;65084;42.196;25.326;2023-07-31T06:59:15;5.82;;;4.50;;
34805;SDS011;65084;42.196;25.326;2023-07-31T07:01:42;9.60;;;4.72;;
34805;SDS011;65084;42.196;25.326;2023-07-31T07:04:09;11.02;;;4.70;;
34805;SDS011;65084;42.196;25.326;2023-07-31T07:06:37;5.88;;;4.32;;
34805;SDS011;65084;42.196;25.326;2023-07-31T07:09:04;5.07;;;4.45;;
34805;SDS011;65084;42.196;25.326;2023-07-31T07:11:33;5.90;;;4.72;;
34805;SDS011;65084;42.196;25.326;2023-07-31T07:14:02;13.48;;;5.20;;
34805;SDS011;65084;42.196;25.326;2023-07-31T07:16:29;6.20;;;5.60;;
34805;SDS011;65084;42.196;25.326;2023-07-31T07:18:56;6.80;;;5.47;;
34805;SDS011;65084;42.196;25.326;2023-07-31T07:21:24;5.63;;;5.22;;
34805;SDS011;65084;42.196;25.326;2023-07-31T07:23:51;5.95;;;5.45;;
34805;SDS011;65084;42.196;25.326;2023-07-31T07:26:18;6.10;;;5.45;;
34805;SDS011;65084;42.196;25.326;2023-07-31T07:28:47;9.48;;;6.53;;
34805;SDS011;65084;42.196;25.326;2023-07-31T07:31:14;9.25;;;5.93;;
34805;SDS011;65084;42.196;25.326;2023-07-31T07:33:42;12.55;;;6.15;;
34805;SDS011;65084;42.196;25.326;2023-07-31T07:36:09;6.55;;;5.68;;
34805;SDS011;65084;42.196;25.326;2023-07-31T07:38:37;7.18;;;6.35;;
34805;SDS011;65084;42.196;25.326;2023-07-31T07:41:06;5.80;;;5.30;;
34805;SDS011;65084;42.196;25.326;2023-07-31T07:43:33;6.40;;;5.65;;
34805;SDS011;65084;42.196;25.326;2023-07-31T07:46:02;6.72;;;6.03;;
34805;SDS011;65084;42.196;25.326;2023-07-31T07:48:29;8.02;;;5.53;;
34805;SDS011;65084;42.196;25.326;2023-07-31T07:50:56;5.85;;;5.00;;
34805;SDS011;65084;42.196;25.326;2023-07-31T07:53:23;6.05;;;5.55;;
34805;SDS011;65084;42.196;25.326;2023-07-31T07:55:51;6.30;;;5.70;;
34805;SDS011;65084;42.196;25.326;2023-07-31T07:58:18;6.30;;;5.80;;
34805;SDS011;65084;42.196;25.326;2023-07-31T08:00:48;8.02;;;5.63;;
34805;SDS011;65084;42.196;25.326;2023-07-31T08:03:17;6.18;;;5.20;;
34805;SDS011;65084;42.196;25.326;2023-07-31T08:05:45;6.30;;;5.80;;
34805;SDS011;65084;42.196;25.326;2023-07-31T08:08:14;5.65;;;5.15;;
34805;SDS011;65084;42.196;25.326;2023-07-31T08:10:42;6.68;;;6.13;;
34805;SDS011;65084;42.196;25.326;2023-07-31T08:13:09;8.77;;;5.32;;
34805;SDS011;65084;42.196;25.326;2023-07-31T08:15:36;4.57;;;4.28;;
34805;SDS011;65084;42.196;25.326;2023-07-31T08:18:04;6.32;;;4.88;;
34805;SDS011;65084;42.196;25.326;2023-07-31T08:20:32;12.60;;;4.95;;
34805;SDS011;65084;42.196;25.326;2023-07-31T08:23:00;5.85;;;5.03;;
34805;SDS011;65084;42.196;25.326;2023-07-31T08:25:27;7.60;;;4.85;;
34805;SDS011;65084;42.196;25.326;2023-07-31T08:27:54;11.07;;;5.38;;
34805;SDS011;65084;42.196;25.326;2023-07-31T08:30:22;8.43;;;5.18;;
34805;SDS011;65084;42.196;25.326;2023-07-31T08:32:49;5.65;;;5.15;;
34805;SDS011;65084;42.196;25.326;2023-07-31T08:35:17;5.80;;;5.30;;
34805;SDS011;65084;42.196;25.326;2023-07-31T08:37:45;8.80;;;5.30;;
34805;SDS011;65084;42.196;25.326;2023-07-31T08:40:13;5.88;;;5.38;;
34805;SDS011;65084;42.196;25.326;2023-07-31T08:42:43;5.25;;;4.85;;
34805;SDS011;65084;42.196;25.326;2023-07-31T08:45:12;6.63;;;5.50;;
34805;SDS011;65084;42.196;25.326;2023-07-31T08:47:40;5.50;;;5.00;;
34805;SDS011;65084;42.196;25.326;2023-07-31T08:50:08;5.50;;;5.10;;
34805;SDS011;65084;42.196;25.326;2023-07-31T08:52:36;5.70;;;5.03;;
34805;SDS011;65084;42.196;25.326;2023-07-31T08:55:06;8.85;;;5.38;;
34805;SDS011;65084;42.196;25.326;2023-07-31T08:57:34;22.33;;;5.75;;
34805;SDS011;65084;42.196;25.326;2023-07-31T09:00:02;14.13;;;4.72;;
34805;SDS011;65084;42.196;25.326;2023-07-31T09:02:31;6.60;;;4.90;;
34805;SDS011;65084;42.196;25.326;2023-07-31T09:05:01;5.63;;;5.13;;
34805;SDS011;65084;42.196;25.326;2023-07-31T09:07:29;5.55;;;5.13;;
34805;SDS011;65084;42.196;25.326;2023-07-31T09:09:56;5.72;;;4.95;;
34805;SDS011;65084;42.196;25.326;2023-07-31T09:12:26;8.30;;;5.05;;
34805;SDS011;65084;42.196;25.326;2023-07-31T09:14:53;48.00;;;6.60;;
34805;SDS011;65084;42.196;25.326;2023-07-31T09:17:28;5.38;;;4.97;;
34805;SDS011;65084;42.196;25.326;2023-07-31T09:19:55;5.10;;;4.70;;
34805;SDS011;65084;42.196;25.326;2023-07-31T09:22:31;8.77;;;5.20;;
34805;SDS011;65084;42.196;25.326;2023-07-31T09:25:03;5.97;;;5.18;;
34805;SDS011;65084;42.196;25.326;2023-07-31T09:27:45;4.75;;;4.32;;
34805;SDS011;65084;42.196;25.326;2023-07-31T09:30:12;5.70;;;4.90;;
34805;SDS011;65084;42.196;25.326;2023-07-31T09:32:39;5.00;;;4.70;;
34805;SDS011;65084;42.196;25.326;2023-07-31T09:35:13;5.13;;;4.72;;
34805;SDS011;65084;42.196;25.326;2023-07-31T09:37:40;5.18;;;4.78;;
34805;SDS011;65084;42.196;25.326;2023-07-31T09:40:08;4.93;;;4.63;;
34805;SDS011;65084;42.196;25.326;2023-07-31T09:42:35;4.60;;;4.30;;
34805;SDS011;65084;42.196;25.326;2023-07-31T09:45:11;4.88;;;4.50;;
34805;SDS011;65084;42.196;25.326;2023-07-31T09:50:07;7.30;;;4.35;;
34805;SDS011;65084;42.196;25.326;2023-07-31T09:52:34;5.07;;;4.57;;
34805;SDS011;65084;42.196;25.326;2023-07-31T09:55:05;4.40;;;4.10;;
34805;SDS011;65084;42.196;25.326;2023-07-31T09:57:33;4.30;;;4.03;;
34805;SDS011;65084;42.196;25.326;2023-07-31T10:00:00;4.22;;;3.92;;
34805;SDS011;65084;42.196;25.326;2023-07-31T10:02:30;4.75;;;4.35;;
34805;SDS011;65084;42.196;25.326;2023-07-31T10:04:59;4.78;;;4.45;;
34805;SDS011;65084;42.196;25.326;2023-07-31T10:07:28;5.75;;;4.38;;
34805;SDS011;65084;42.196;25.326;2023-07-31T10:09:57;6.45;;;4.88;;
34805;SDS011;65084;42.196;25.326;2023-07-31T10:12:25;4.53;;;4.20;;
34805;SDS011;65084;42.196;25.326;2023-07-31T10:14:54;5.18;;;4.78;;
34805;SDS011;65084;42.196;25.326;2023-07-31T10:17:21;4.80;;;4.50;;
34805;SDS011;65084;42.196;25.326;2023-07-31T10:19:50;4.75;;;4.45;;
34805;SDS011;65084;42.196;25.326;2023-07-31T10:22:18;4.60;;;4.30;;
34805;SDS011;65084;42.196;25.326;2023-07-31T10:24:46;4.72;;;4.40;;
34805;SDS011;65084;42.196;25.326;2023-07-31T10:27:13;7.85;;;5.10;;
34805;SDS011;65084;42.196;25.326;2023-07-31T10:29:41;5.35;;;4.43;;
34805;SDS011;65084;42.196;25.326;2023-07-31T10:32:12;5.55;;;4.07;;
34805;SDS011;65084;42.196;25.326;2023-07-31T10:34:40;5.55;;;4.50;;
34805;SDS011;65084;42.196;25.326;2023-07-31T10:37:25;5.22;;;4.82;;
34805;SDS011;65084;42.196;25.326;2023-07-31T10:39:56;4.72;;;4.43;;
34805;SDS011;65084;42.196;25.326;2023-07-31T10:42:33;5.20;;;4.80;;
34805;SDS011;65084;42.196;25.326;2023-07-31T10:45:01;5.18;;;4.85;;
34805;SDS011;65084;42.196;25.326;2023-07-31T10:47:28;4.97;;;4.63;;
34805;SDS011;65084;42.196;25.326;2023-07-31T10:50:12;5.07;;;4.57;;
34805;SDS011;65084;42.196;25.326;2023-07-31T10:52:42;6.75;;;5.32;;
34805;SDS011;65084;42.196;25.326;2023-07-31T10:55:14;5.53;;;5.07;;
34805;SDS011;65084;42.196;25.326;2023-07-31T10:57:44;5.13;;;4.72;;
34805;SDS011;65084;42.196;25.326;2023-07-31T11:00:17;4.72;;;4.43;;
34805;SDS011;65084;42.196;25.326;2023-07-31T11:02:54;5.38;;;5.05;;
34805;SDS011;65084;42.196;25.326;2023-07-31T11:05:25;4.90;;;4.50;;
34805;SDS011;65084;42.196;25.326;2023-07-31T11:08:12;5.47;;;5.03;;
34805;SDS011;65084;42.196;25.326;2023-07-31T11:10:40;5.18;;;4.68;;
34805;SDS011;65084;42.196;25.326;2023-07-31T11:13:07;5.18;;;4.78;;
34805;SDS011;65084;42.196;25.326;2023-07-31T11:15:34;5.28;;;4.82;;
34805;SDS011;65084;42.196;25.326;2023-07-31T11:18:01;5.00;;;4.55;;
34805;SDS011;65084;42.196;25.326;2023-07-31T11:20:30;7.32;;;4.90;;
34805;SDS011;65084;42.196;25.326;2023-07-31T11:22:59;4.95;;;4.55;;
34805;SDS011;65084;42.196;25.326;2023-07-31T11:25:28;5.30;;;4.93;;
34805;SDS011;65084;42.196;25.326;2023-07-31T11:27:55;6.13;;;5.57;;
34805;SDS011;65084;42.196;25.326;2023-07-31T11:30:22;5.50;;;5.10;;
34805;SDS011;65084;42.196;25.326;2023-07-31T11:32:50;5.75;;;4.93;;
34805;SDS011;65084;42.196;25.326;2023-07-31T11:35:17;5.60;;;4.60;;
34805;SDS011;65084;42.196;25.326;2023-07-31T11:37:45;9.93;;;5.43;;
34805;SDS011;65084;42.196;25.326;2023-07-31T11:40:12;4.68;;;4.38;;
34805;SDS011;65084;42.196;25.326;2023-07-31T11:42:41;5.30;;;4.90;;
34805;SDS011;65084;42.196;25.326;2023-07-31T11:45:08;5.65;;;4.80;;
34805;SDS011;65084;42.196;25.326;2023-07-31T11:47:36;5.75;;;5.32;;
34805;SDS011;65084;42.196;25.326;2023-07-31T11:50:04;5.40;;;5.00;;
34805;SDS011;65084;42.196;25.326;2023-07-31T11:52:33;6.38;;;4.75;;
34805;SDS011;65084;42.196;25.326;2023-07-31T11:55:01;5.65;;;5.22;;
34805;SDS011;65084;42.196;25.326;2023-07-31T11:57:28;4.72;;;4.43;;
34805;SDS011;65084;42.196;25.326;2023-07-31T11:59:57;5.65;;;5.25;;
34805;SDS011;65084;42.196;25.326;2023-07-31T12:02:24;5.72;;;5.32;;
34805;SDS011;65084;42.196;25.326;2023-07-31T12:04:52;5.38;;;5.07;;
34805;SDS011;65084;42.196;25.326;2023-07-31T12:07:19;5.13;;;4.63;;
34805;SDS011;65084;42.196;25.326;2023-07-31T12:09:53;6.03;;;5.63;;
34805;SDS011;65084;42.196;25.326;2023-07-31T12:12:20;8.55;;;5.32;;
34805;SDS011;65084;42.196;25.326;2023-07-31T12:14:48;5.25;;;4.80;;
34805;SDS011;65084;42.196;25.326;2023-07-31T12:17:17;6.03;;;5.47;;
34805;SDS011;65084;42.196;25.326;2023-07-31T12:19:48;6.57;;;5.30;;
34805;SDS011;65084;42.196;25.326;2023-07-31T12:22:15;5.57;;;5.18;;
34805;SDS011;65084;42.196;25.326;2023-07-31T12:24:43;6.70;;;5.53;;
34805;SDS011;65084;42.196;25.326;2023-07-31T12:27:10;5.80;;;5.30;;
34805;SDS011;65084;42.196;25.326;2023-07-31T12:29:38;5.45;;;5.05;;
34805;SDS011;65084;42.196;25.326;2023-07-31T12:32:19;5.82;;;5.30;;
34805;SDS011;65084;42.196;25.326;2023-07-31T12:34:46;5.32;;;5.03;;
34805;SDS011;65084;42.196;25.326;2023-07-31T12:37:13;5.40;;;5.00;;
34805;SDS011;65084;42.196;25.326;2023-07-31T12:39:41;5.40;;;4.95;;
34805;SDS011;65084;42.196;25.326;2023-07-31T12:42:08;5.70;;;5.40;;
34805;SDS011;65084;42.196;25.326;2023-07-31T12:44:35;5.68;;;5.18;;
34805;SDS011;65084;42.196;25.326;2023-07-31T12:47:03;5.97;;;5.45;;
34805;SDS011;65084;42.196;25.326;2023-07-31T12:49:32;5.20;;;4.80;;
34805;SDS011;65084;42.196;25.326;2023-07-31T12:51:59;5.65;;;5.28;;
34805;SDS011;65084;42.196;25.326;2023-07-31T12:54:26;6.15;;;5.65;;
34805;SDS011;65084;42.196;25.326;2023-07-31T12:56:53;5.70;;;5.18;;
34805;SDS011;65084;42.196;25.326;2023-07-31T12:59:21;5.15;;;4.82;;
34805;SDS011;65084;42.196;25.326;2023-07-31T13:01:48;5.20;;;4.88;;
34805;SDS011;65084;42.196;25.326;2023-07-31T13:07:35;6.05;;;5.60;;
34805;SDS011;65084;42.196;25.326;2023-07-31T13:10:03;14.63;;;5.25;;
34805;SDS011;65084;42.196;25.326;2023-07-31T13:12:31;5.57;;;5.18;;
34805;SDS011;65084;42.196;25.326;2023-07-31T13:14:58;7.13;;;5.28;;
34805;SDS011;65084;42.196;25.326;2023-07-31T13:17:25;5.40;;;5.07;;
34805;SDS011;65084;42.196;25.326;2023-07-31T13:19:53;7.97;;;5.40;;
34805;SDS011;65084;42.196;25.326;2023-07-31T13:22:20;6.07;;;5.57;;
34805;SDS011;65084;42.196;25.326;2023-07-31T13:24:49;5.70;;;5.30;;
34805;SDS011;65084;42.196;25.326;2023-07-31T13:27:16;5.60;;;5.18;;
34805;SDS011;65084;42.196;25.326;2023-07-31T13:29:45;6.38;;;5.13;;
34805;SDS011;65084;42.196;25.326;2023-07-31T13:32:13;5.75;;;5.35;;
34805;SDS011;65084;42.196;25.326;2023-07-31T13:34:40;5.63;;;5.13;;
34805;SDS011;65084;42.196;25.326;2023-07-31T13:37:07;5.47;;;4.90;;
34805;SDS011;65084;42.196;25.326;2023-07-31T13:39:34;6.00;;;5.47;;
34805;SDS011;65084;42.196;25.326;2023-07-31T13:42:04;5.85;;;5.30;;
34805;SDS011;65084;42.196;25.326;2023-07-31T13:44:31;5.47;;;4.78;;
34805;SDS011;65084;42.196;25.326;2023-07-31T13:46:59;5.38;;;4.72;;
34805;SDS011;65084;42.196;25.326;2023-07-31T13:49:26;5.75;;;5.35;;
34805;SDS011;65084;42.196;25.326;2023-07-31T13:51:53;5.50;;;4.97;;
34805;SDS011;65084;42.196;25.326;2023-07-31T13:54:21;5.60;;;5.20;;
34805;SDS011;65084;42.196;25.326;2023-07-31T13:56:49;5.60;;;5.20;;
34805;SDS011;65084;42.196;25.326;2023-07-31T13:59:17;5.70;;;5.07;;
34805;SDS011;65084;42.196;25.326;2023-07-31T14:01:45;6.00;;;5.50;;
34805;SDS011;65084;42.196;25.326;2023-07-31T14:04:12;6.47;;;5.88;;
34805;SDS011;65084;42.196;25.326;2023-07-31T14:06:39;9.15;;;5.18;;
34805;SDS011;65084;42.196;25.326;2023-07-31T14:09:07;5.53;;;5.13;;
34805;SDS011;65084;42.196;25.326;2023-07-31T14:11:34;8.23;;;5.32;;
34805;SDS011;65084;42.196;25.326;2023-07-31T14:14:01;7.32;;;5.57;;
34805;SDS011;65084;42.196;25.326;2023-07-31T14:16:31;5.55;;;5.05;;
34805;SDS011;65084;42.196;25.326;2023-07-31T14:18:58;5.70;;;5.18;;
34805;SDS011;65084;42.196;25.326;2023-07-31T14:21:25;6.40;;;5.80;;
34805;SDS011;65084;42.196;25.326;2023-07-31T14:23:53;5.43;;;4.93;;
34805;SDS011;65084;42.196;25.326;2023-07-31T14:26:20;7.07;;;5.65;;
34805;SDS011;65084;42.196;25.326;2023-07-31T14:28:47;5.55;;;5.05;;
34805;SDS011;65084;42.196;25.326;2023-07-31T14:31:14;5.53;;;5.03;;
34805;SDS011;65084;42.196;25.326;2023-07-31T14:33:43;16.02;;;6.18;;
34805;SDS011;65084;42.196;25.326;2023-07-31T14:36:10;6.90;;;4.88;;
34805;SDS011;65084;42.196;25.326;2023-07-31T14:38:38;14.65;;;5.97;;
34805;SDS011;65084;42.196;25.326;2023-07-31T14:41:05;10.13;;;5.22;;
34805;SDS011;65084;42.196;25.326;2023-07-31T14:43:32;8.75;;;5.13;;